createdAt,value
2018-05-25T00:02:19.538Z,3.40
2018-05-25T00:04:45.437Z,2.83
2018-05-25T00:07:11.336Z,3.67
2018-05-25T00:09:37.224Z,3.07
2018-05-25T00:12:02.979Z,3.07
2018-05-25T00:14:28.735Z,2.93
2018-05-25T00:16:54.534Z,3.03
2018-05-25T00:19:20.279Z,3.70
2018-05-25T00:21:46.112Z,3.50
2018-05-25T00:24:11.903Z,2.97
2018-05-25T00:26:44.649Z,3.03
2018-05-25T00:29:10.438Z,3.00
2018-05-25T00:31:36.208Z,3.37
2018-05-25T00:34:01.960Z,3.60
2018-05-25T00:36:28.004Z,3.50
2018-05-25T00:38:53.785Z,3.37
2018-05-25T00:41:19.603Z,3.77
2018-05-25T00:43:45.451Z,3.03
2018-05-25T00:46:11.227Z,3.53
2018-05-25T00:48:37.011Z,4.07
2018-05-25T00:51:02.764Z,3.27
2018-05-25T00:53:28.511Z,3.67
2018-05-25T00:55:54.279Z,3.60
2018-05-25T00:58:20.055Z,3.20
2018-05-25T01:00:45.831Z,2.97
2018-05-25T01:03:11.645Z,2.83
2018-05-25T01:05:37.443Z,3.10
2018-05-25T01:08:03.204Z,3.30
2018-05-25T01:10:29.038Z,3.63
2018-05-25T01:12:54.823Z,3.33
2018-05-25T01:15:20.570Z,3.83
2018-05-25T01:17:46.332Z,3.67
2018-05-25T01:20:12.076Z,3.80
2018-05-25T01:22:37.888Z,3.97
2018-05-25T01:25:03.643Z,2.90
2018-05-25T01:27:29.457Z,3.40
2018-05-25T01:29:55.198Z,3.20
2018-05-25T01:32:20.984Z,3.60
2018-05-25T01:34:46.737Z,3.70
2018-05-25T01:37:12.749Z,3.47
2018-05-25T01:39:38.536Z,3.53
2018-05-25T01:42:04.287Z,3.60
2018-05-25T01:44:30.071Z,3.70
2018-05-25T01:46:56.248Z,3.00
2018-05-25T01:49:22.119Z,3.80
2018-05-25T01:51:47.895Z,5.00
2018-05-25T01:54:13.635Z,3.10
2018-05-25T01:56:39.423Z,3.30
2018-05-25T01:59:05.182Z,4.07
2018-05-25T02:01:30.960Z,4.13
2018-05-25T02:03:56.758Z,3.57
2018-05-25T02:06:22.522Z,3.30
2018-05-25T02:08:48.299Z,3.73
2018-05-25T02:11:14.270Z,4.30
2018-05-25T02:13:40.002Z,4.07
2018-05-25T02:16:05.774Z,3.23
2018-05-25T02:18:31.556Z,3.57
2018-05-25T02:20:57.294Z,4.10
2018-05-25T02:23:23.084Z,3.80
2018-05-25T02:25:48.844Z,4.00
2018-05-25T02:28:14.616Z,3.33
2018-05-25T02:30:40.359Z,3.70
2018-05-25T02:33:06.386Z,3.43
2018-05-25T02:35:32.155Z,3.60
2018-05-25T02:37:58.084Z,3.90
2018-05-25T02:40:23.871Z,3.87
2018-05-25T02:42:49.640Z,3.50
2018-05-25T02:45:15.501Z,3.87
2018-05-25T02:47:41.323Z,3.93
2018-05-25T02:50:07.071Z,3.97
2018-05-25T02:52:32.894Z,3.90
2018-05-25T02:54:58.718Z,3.80
2018-05-25T02:57:24.503Z,3.67
2018-05-25T02:59:50.258Z,3.00
2018-05-25T03:02:16.051Z,3.67
2018-05-25T03:04:41.793Z,3.53
2018-05-25T03:07:07.547Z,3.90
2018-05-25T03:09:33.331Z,4.10
2018-05-25T03:11:59.083Z,3.43
2018-05-25T03:14:24.835Z,3.93
2018-05-25T03:16:50.594Z,4.20
2018-05-25T03:19:16.372Z,3.60
2018-05-25T03:21:42.116Z,3.47
2018-05-25T03:24:07.893Z,3.60
2018-05-25T03:26:33.635Z,3.53
2018-05-25T03:28:59.623Z,4.50
2018-05-25T03:31:25.393Z,3.90
2018-05-25T03:33:51.159Z,4.20
2018-05-25T03:36:16.904Z,3.67
2018-05-25T03:38:42.691Z,4.27
2018-05-25T03:41:08.443Z,3.77
2018-05-25T03:43:34.207Z,4.10
2018-05-25T03:45:59.961Z,3.80
2018-05-25T03:48:25.839Z,3.70
2018-05-25T03:50:51.623Z,3.83
2018-05-25T03:53:17.388Z,4.23
2018-05-25T03:55:43.163Z,4.03
2018-05-25T03:58:08.952Z,4.17
2018-05-25T04:00:46.980Z,4.27
2018-05-25T04:03:12.824Z,4.68
2018-05-25T04:05:38.591Z,4.00
2018-05-25T04:08:04.364Z,4.70
2018-05-25T04:10:30.138Z,4.13
2018-05-25T04:12:55.989Z,4.43
2018-05-25T04:15:21.753Z,3.70
2018-05-25T04:17:47.522Z,3.40
2018-05-25T04:20:13.287Z,4.83
2018-05-25T04:22:39.022Z,4.00
2018-05-25T04:25:04.802Z,3.93
2018-05-25T04:27:30.563Z,4.20
2018-05-25T04:29:56.347Z,4.80
2018-05-25T04:32:22.136Z,4.57
2018-05-25T04:34:47.895Z,4.03
2018-05-25T04:37:13.644Z,4.60
2018-05-25T04:39:39.431Z,4.43
2018-05-25T04:42:05.180Z,3.47
2018-05-25T04:44:31.030Z,4.03
2018-05-25T04:46:56.957Z,4.63
2018-05-25T04:49:22.763Z,4.00
2018-05-25T04:51:48.503Z,3.87
2018-05-25T04:54:14.460Z,3.50
2018-05-25T04:56:40.323Z,4.50
2018-05-25T04:59:06.116Z,3.33
2018-05-25T05:01:32.002Z,4.67
2018-05-25T05:03:57.784Z,4.03
2018-05-25T05:06:23.712Z,4.70
2018-05-25T05:08:49.452Z,4.37
2018-05-25T05:11:15.218Z,4.40
2018-05-25T05:13:40.964Z,4.30
2018-05-25T05:16:06.780Z,4.70
2018-05-25T05:18:32.527Z,4.30
2018-05-25T05:20:58.411Z,4.07
2018-05-25T05:23:24.166Z,4.53
2018-05-25T05:25:49.943Z,5.13
2018-05-25T05:28:15.699Z,4.60
2018-05-25T05:30:41.468Z,4.80
2018-05-25T05:33:07.219Z,4.40
2018-05-25T05:35:33.063Z,4.60
2018-05-25T05:37:58.815Z,4.73
2018-05-25T05:40:24.595Z,4.40
2018-05-25T05:42:50.340Z,4.60
2018-05-25T05:45:16.192Z,5.50
2018-05-25T05:47:41.943Z,4.43
2018-05-25T05:50:07.715Z,5.20
2018-05-25T05:52:33.466Z,4.40
2018-05-25T05:54:59.252Z,4.77
2018-05-25T05:57:24.992Z,4.50
2018-05-25T05:59:50.749Z,5.37
2018-05-25T06:02:16.539Z,4.97
2018-05-25T06:04:42.288Z,4.57
2018-05-25T06:07:08.053Z,4.13
2018-05-25T06:09:33.827Z,4.53
2018-05-25T06:11:59.597Z,4.40
2018-05-25T06:14:25.399Z,4.57
2018-05-25T06:16:51.245Z,5.20
2018-05-25T06:19:16.972Z,4.90
2018-05-25T06:21:42.727Z,4.90
2018-05-25T06:24:08.480Z,5.30
2018-05-25T06:26:34.302Z,4.70
2018-05-25T06:29:00.043Z,4.67
2018-05-25T06:31:25.837Z,4.80
2018-05-25T06:33:51.581Z,4.43
2018-05-25T06:36:17.338Z,4.93
2018-05-25T06:38:43.151Z,4.87
2018-05-25T06:41:08.911Z,4.40
2018-05-25T06:43:34.664Z,4.93
2018-05-25T06:46:00.607Z,4.60
2018-05-25T06:48:26.370Z,4.80
2018-05-25T06:50:52.294Z,4.93
2018-05-25T06:53:18.036Z,4.30
2018-05-25T06:55:43.823Z,4.80
2018-05-25T06:58:09.588Z,4.63
2018-05-25T07:00:35.327Z,4.03
2018-05-25T07:03:01.104Z,4.47
2018-05-25T07:05:26.915Z,4.60
2018-05-25T07:07:52.812Z,5.17
2018-05-25T07:10:18.566Z,4.30
2018-05-25T07:12:44.307Z,4.13
2018-05-25T07:15:10.065Z,4.73
2018-05-25T07:17:36.128Z,4.80
2018-05-25T07:20:01.913Z,4.30
2018-05-25T07:22:27.681Z,4.07
2018-05-25T07:24:53.515Z,4.47
2018-05-25T07:27:19.289Z,4.23
2018-05-25T07:29:45.057Z,5.07
2018-05-25T07:32:10.826Z,4.20
2018-05-25T07:34:36.570Z,4.53
2018-05-25T07:37:02.341Z,4.40
2018-05-25T07:39:28.111Z,4.07
2018-05-25T07:41:53.974Z,5.10
2018-05-25T07:44:19.731Z,4.20
2018-05-25T07:46:45.523Z,4.50
2018-05-25T07:49:11.263Z,5.03
2018-05-25T07:51:37.143Z,4.20
2018-05-25T07:54:02.912Z,4.87
2018-05-25T07:56:28.683Z,4.70
2018-05-25T07:58:54.584Z,5.10
2018-05-25T08:01:20.367Z,4.47
2018-05-25T08:03:46.137Z,4.77
2018-05-25T08:06:11.916Z,4.60
2018-05-25T08:08:37.683Z,5.00
2018-05-25T08:11:03.434Z,4.30
2018-05-25T08:13:29.207Z,4.30
2018-05-25T08:15:55.027Z,4.57
2018-05-25T08:18:20.791Z,4.33
2018-05-25T08:20:46.535Z,4.10
2018-05-25T08:23:12.311Z,4.53
2018-05-25T08:25:38.051Z,4.57
2018-05-25T08:28:03.818Z,4.40
2018-05-25T08:30:29.579Z,4.30
2018-05-25T08:32:55.424Z,4.40
2018-05-25T08:35:21.175Z,4.40
2018-05-25T08:37:46.955Z,4.67
2018-05-25T08:40:12.700Z,4.40
2018-05-25T08:42:38.539Z,4.40
2018-05-25T08:45:04.299Z,4.40
2018-05-25T08:47:30.097Z,4.70
2018-05-25T08:49:55.835Z,3.60
2018-05-25T08:52:21.594Z,4.43
2018-05-25T08:54:47.336Z,4.47
2018-05-25T08:57:13.128Z,4.70
2018-05-25T08:59:38.863Z,4.13
2018-05-25T09:02:04.673Z,4.50
2018-05-25T09:04:30.460Z,4.10
2018-05-25T09:06:56.215Z,4.67
2018-05-25T09:09:21.992Z,3.70
2018-05-25T09:11:47.740Z,4.10
2018-05-25T09:14:13.514Z,4.47
2018-05-25T09:16:39.299Z,4.20
2018-05-25T09:19:05.078Z,4.20
2018-05-25T09:21:30.904Z,4.43
2018-05-25T09:23:56.711Z,4.23
2018-05-25T09:26:22.512Z,4.10
2018-05-25T09:28:48.276Z,4.30
2018-05-25T09:31:14.033Z,4.37
2018-05-25T09:33:39.802Z,4.03
2018-05-25T09:36:05.601Z,4.50
2018-05-25T09:38:31.352Z,3.80
2018-05-25T09:40:57.120Z,3.97
2018-05-25T09:43:23.044Z,4.27
2018-05-25T09:45:48.723Z,3.90
2018-05-25T09:48:14.526Z,4.10
2018-05-25T09:50:40.255Z,4.53
2018-05-25T09:53:06.020Z,3.70
2018-05-25T09:55:31.773Z,3.87
2018-05-25T09:57:57.563Z,4.17
2018-05-25T10:00:25.179Z,4.10
2018-05-25T10:02:50.934Z,3.70
2018-05-25T10:05:16.691Z,4.07
2018-05-25T10:07:42.452Z,3.40
2018-05-25T10:10:08.539Z,4.10
2018-05-25T10:12:34.348Z,4.10
2018-05-25T10:15:00.147Z,4.40
2018-05-25T10:17:25.886Z,3.80
2018-05-25T10:19:51.679Z,3.63
2018-05-25T10:22:17.424Z,3.37
2018-05-25T10:24:43.171Z,3.97
2018-05-25T10:27:08.903Z,4.10
2018-05-25T10:29:34.684Z,4.60
2018-05-25T10:32:00.555Z,3.80
2018-05-25T10:34:26.340Z,4.07
2018-05-25T10:36:52.104Z,4.10
2018-05-25T10:39:17.960Z,3.33
2018-05-25T10:41:43.715Z,3.30
2018-05-25T10:44:09.484Z,3.63
2018-05-25T10:46:35.284Z,4.10
2018-05-25T10:49:01.123Z,3.73
2018-05-25T10:51:27.002Z,3.80
2018-05-25T10:53:52.781Z,3.93
2018-05-25T10:56:18.523Z,3.50
2018-05-25T10:58:44.378Z,3.37
2018-05-25T11:01:10.128Z,4.10
2018-05-25T11:03:35.912Z,3.83
2018-05-25T11:06:08.536Z,3.90
2018-05-25T11:08:34.404Z,4.23
2018-05-25T11:11:00.183Z,3.40
2018-05-25T11:13:25.953Z,3.93
2018-05-25T11:15:51.716Z,3.73
2018-05-25T11:18:17.487Z,3.37
2018-05-25T11:20:43.262Z,3.60
2018-05-25T11:23:09.011Z,3.00
2018-05-25T11:25:34.772Z,3.20
2018-05-25T11:28:00.562Z,4.00
2018-05-25T11:30:26.367Z,3.80
2018-05-25T11:32:52.111Z,3.27
2018-05-25T11:35:17.888Z,3.63
2018-05-25T11:37:43.644Z,3.73
2018-05-25T11:40:09.407Z,3.63
2018-05-25T11:42:35.191Z,3.80
2018-05-25T11:45:01.020Z,3.70
2018-05-25T11:47:26.829Z,3.63
2018-05-25T11:49:52.701Z,3.33
2018-05-25T11:52:18.467Z,3.60
2018-05-25T11:54:44.232Z,3.37
2018-05-25T11:57:10.003Z,3.73
2018-05-25T11:59:35.888Z,3.47
2018-05-25T12:02:01.671Z,3.33
2018-05-25T12:04:27.580Z,3.17
2018-05-25T12:06:53.420Z,3.70
2018-05-25T12:09:19.183Z,3.97
2018-05-25T12:11:45.818Z,2.87
2018-05-25T12:14:11.576Z,3.67
2018-05-25T12:16:37.375Z,3.43
2018-05-25T12:19:03.135Z,3.27
2018-05-25T12:21:28.907Z,3.33
2018-05-25T12:23:54.661Z,3.30
2018-05-25T12:26:20.423Z,3.07
2018-05-25T12:28:46.181Z,3.67
2018-05-25T12:31:11.940Z,3.50
2018-05-25T12:33:38.485Z,2.80
2018-05-25T12:36:04.285Z,3.73
2018-05-25T12:38:30.040Z,2.80
2018-05-25T12:40:55.803Z,3.00
2018-05-25T12:43:21.752Z,3.00
2018-05-25T12:45:47.526Z,3.63
2018-05-25T12:48:13.264Z,4.10
2018-05-25T12:50:39.056Z,3.87
2018-05-25T12:53:04.806Z,4.20
2018-05-25T12:55:30.558Z,3.73
2018-05-25T12:57:56.287Z,3.50
2018-05-25T13:00:22.066Z,3.77
2018-05-25T13:02:47.822Z,3.60
2018-05-25T13:05:13.708Z,3.13
2018-05-25T13:07:39.491Z,3.00
2018-05-25T13:10:05.243Z,3.60
2018-05-25T13:12:31.016Z,3.23
2018-05-25T13:14:56.808Z,4.30
2018-05-25T13:17:22.576Z,3.30
2018-05-25T13:19:48.344Z,3.53
2018-05-25T13:22:14.120Z,3.10
2018-05-25T13:24:39.862Z,2.93
2018-05-25T13:27:05.627Z,3.20
2018-05-25T13:29:31.739Z,3.57
2018-05-25T13:31:57.539Z,3.60
2018-05-25T13:34:23.389Z,2.80
2018-05-25T13:36:49.164Z,3.20
2018-05-25T13:39:14.911Z,3.10
2018-05-25T13:41:40.671Z,3.77
2018-05-25T13:44:06.431Z,2.93
2018-05-25T13:46:32.301Z,2.93
2018-05-25T13:48:58.060Z,2.80
2018-05-25T13:51:23.823Z,2.93
2018-05-25T13:53:49.579Z,2.73
2018-05-25T13:56:15.415Z,3.13
2018-05-25T13:58:41.175Z,3.20
2018-05-25T14:01:07.033Z,3.17
2018-05-25T14:03:32.788Z,3.03
2018-05-25T14:05:58.851Z,3.90
2018-05-25T14:08:24.583Z,3.63
2018-05-25T14:10:50.320Z,3.47
2018-05-25T14:13:16.087Z,3.90
2018-05-25T14:15:41.867Z,3.40
2018-05-25T14:18:07.630Z,3.20
2018-05-25T14:20:33.371Z,3.17
2018-05-25T14:22:59.134Z,3.50
2018-05-25T14:25:24.886Z,2.90
2018-05-25T14:27:50.669Z,3.97
2018-05-25T14:30:16.502Z,3.63
2018-05-25T14:32:42.279Z,3.77
2018-05-25T14:35:08.046Z,3.27
2018-05-25T14:37:33.807Z,3.20
2018-05-25T14:39:59.564Z,3.40
2018-05-25T14:42:25.423Z,3.10
2018-05-25T14:44:51.170Z,2.83
2018-05-25T14:47:16.918Z,3.03
2018-05-25T14:49:42.663Z,3.60
2018-05-25T14:52:08.552Z,3.10
2018-05-25T14:54:34.338Z,3.30
2018-05-25T14:57:00.148Z,3.47
2018-05-25T14:59:25.882Z,2.93
2018-05-25T15:01:51.668Z,3.20
2018-05-25T15:04:17.423Z,3.30
2018-05-25T15:06:43.264Z,3.60
2018-05-25T15:09:09.125Z,3.27
2018-05-25T15:11:34.859Z,3.03
2018-05-25T15:14:00.599Z,2.97
2018-05-25T15:16:26.335Z,3.37
2018-05-25T15:18:52.092Z,2.90
2018-05-25T15:21:17.895Z,3.23
2018-05-25T15:23:43.718Z,2.93
2018-05-25T15:26:09.482Z,3.00
2018-05-25T15:28:35.501Z,2.53
2018-05-25T15:31:01.348Z,2.37
2018-05-25T15:33:27.010Z,3.00
2018-05-25T15:35:52.768Z,3.60
2018-05-25T15:38:18.544Z,3.07
2018-05-25T15:40:44.291Z,3.27
2018-05-25T15:43:10.041Z,3.10
2018-05-25T15:45:35.875Z,3.20
2018-05-25T15:48:01.744Z,2.53
2018-05-25T15:50:27.516Z,2.40
2018-05-25T15:52:53.409Z,2.70
2018-05-25T15:55:19.303Z,2.63
2018-05-25T15:57:45.235Z,2.70
2018-05-25T16:00:10.991Z,3.17
2018-05-25T16:02:36.751Z,2.50
2018-05-25T16:05:02.545Z,2.63
2018-05-25T16:07:28.318Z,2.40
2018-05-25T16:09:54.071Z,3.30
2018-05-25T16:12:19.853Z,2.57
2018-05-25T16:14:45.591Z,2.90
2018-05-25T16:17:11.335Z,3.23
2018-05-25T16:19:37.099Z,3.47
2018-05-25T16:22:02.875Z,2.70
2018-05-25T16:24:28.644Z,2.20
2018-05-25T16:26:54.413Z,2.50
2018-05-25T16:29:20.204Z,2.67
2018-05-25T16:31:45.969Z,2.50
2018-05-25T16:34:11.771Z,2.80
2018-05-25T16:36:37.567Z,2.70
2018-05-25T16:39:03.340Z,3.10
2018-05-25T16:41:29.083Z,2.60
2018-05-25T16:43:54.880Z,2.40
2018-05-25T16:46:20.639Z,2.53
2018-05-25T16:48:46.514Z,2.67
2018-05-25T16:51:12.268Z,2.40
2018-05-25T16:53:38.031Z,2.70
2018-05-25T16:56:03.845Z,2.07
2018-05-25T16:58:29.579Z,2.30
2018-05-25T17:00:55.335Z,1.83
2018-05-25T17:03:21.106Z,2.17
2018-05-25T17:05:46.859Z,2.03
2018-05-25T17:08:12.688Z,2.07
2018-05-25T17:10:38.436Z,2.10
2018-05-25T17:13:04.272Z,2.30
2018-05-25T17:15:30.020Z,2.90
2018-05-25T17:17:55.785Z,2.10
2018-05-25T17:20:21.550Z,2.50
2018-05-25T17:22:47.336Z,2.30
2018-05-25T17:25:13.139Z,1.70
2018-05-25T17:27:38.887Z,1.90
2018-05-25T17:30:04.652Z,2.30
2018-05-25T17:32:30.407Z,1.77
2018-05-25T17:34:56.228Z,1.87
2018-05-25T17:37:22.007Z,1.40
2018-05-25T17:39:47.791Z,1.80
2018-05-25T17:42:13.681Z,1.83
2018-05-25T17:44:39.428Z,2.20
2018-05-25T17:47:05.284Z,1.83
2018-05-25T17:49:31.053Z,2.03
2018-05-25T17:51:56.847Z,2.03
2018-05-25T17:54:22.608Z,1.80
2018-05-25T17:56:48.377Z,2.20
2018-05-25T17:59:14.210Z,2.60
2018-05-25T18:01:40.111Z,1.90
2018-05-25T18:04:06.044Z,2.03
2018-05-25T18:06:31.782Z,1.87
2018-05-25T18:08:57.595Z,2.10
2018-05-25T18:11:23.335Z,1.40
2018-05-25T18:13:49.140Z,1.63
2018-05-25T18:16:14.892Z,1.77
2018-05-25T18:18:40.683Z,1.70
2018-05-25T18:21:06.425Z,2.23
2018-05-25T18:23:32.227Z,1.97
2018-05-25T18:25:57.976Z,1.70
2018-05-25T18:28:23.744Z,2.30
2018-05-25T18:30:49.500Z,1.67
2018-05-25T18:33:15.279Z,2.40
2018-05-25T18:35:41.034Z,1.63
2018-05-25T18:38:06.849Z,2.00
2018-05-25T18:40:32.620Z,1.60
2018-05-25T18:42:58.378Z,1.83
2018-05-25T18:45:24.157Z,1.20
2018-05-25T18:47:49.972Z,1.90
2018-05-25T18:50:15.760Z,1.87
2018-05-25T18:52:41.523Z,2.20
2018-05-25T18:55:07.303Z,2.20
2018-05-25T18:57:33.063Z,2.33
2018-05-25T18:59:58.836Z,1.97
2018-05-25T19:02:24.599Z,2.10
2018-05-25T19:04:50.416Z,2.13
2018-05-25T19:07:16.140Z,1.90
2018-05-25T19:09:41.891Z,1.77
2018-05-25T19:12:07.667Z,1.93
2018-05-25T19:14:33.426Z,3.00
2018-05-25T19:16:59.181Z,2.30
2018-05-25T19:19:24.959Z,2.30
2018-05-25T19:21:50.712Z,2.83
2018-05-25T19:24:16.504Z,2.40
2018-05-25T19:26:42.262Z,1.83
2018-05-25T19:29:08.024Z,1.80
2018-05-25T19:31:33.793Z,1.90
2018-05-25T19:33:59.547Z,2.30
2018-05-25T19:36:25.343Z,1.90
2018-05-25T19:38:51.096Z,2.43
2018-05-25T19:41:16.871Z,2.13
2018-05-25T19:43:42.639Z,2.33
2018-05-25T19:46:08.416Z,2.37
2018-05-25T19:48:34.184Z,2.50
2018-05-25T19:51:00.041Z,2.47
2018-05-25T19:53:25.843Z,1.67
2018-05-25T19:55:51.627Z,2.23
2018-05-25T19:58:17.471Z,2.50
2018-05-25T20:00:43.267Z,2.00
2018-05-25T20:03:09.032Z,1.97
2018-05-25T20:05:34.803Z,1.97
2018-05-25T20:08:00.564Z,1.70
2018-05-25T20:10:26.475Z,1.80
2018-05-25T20:12:52.219Z,1.93
2018-05-25T20:15:17.995Z,2.30
2018-05-25T20:17:43.984Z,2.30
2018-05-25T20:20:09.807Z,1.97
2018-05-25T20:22:35.555Z,1.97
2018-05-25T20:25:01.332Z,2.03
2018-05-25T20:27:27.152Z,2.57
2018-05-25T20:29:52.915Z,2.30
2018-05-25T20:32:18.669Z,2.27
2018-05-25T20:34:44.459Z,2.00
2018-05-25T20:37:10.237Z,2.40
2018-05-25T20:39:36.057Z,1.87
2018-05-25T20:42:01.877Z,2.20
2018-05-25T20:44:27.692Z,2.17
2018-05-25T20:46:53.466Z,2.80
2018-05-25T20:49:19.243Z,2.93
2018-05-25T20:51:45.014Z,2.57
2018-05-25T20:54:10.777Z,2.20
2018-05-25T20:56:36.782Z,1.90
2018-05-25T20:59:02.544Z,2.50
2018-05-25T21:01:28.329Z,2.10
2018-05-25T21:03:54.070Z,2.30
2018-05-25T21:06:19.834Z,2.43
2018-05-25T21:08:45.579Z,2.00
2018-05-25T21:11:11.344Z,2.73
2018-05-25T21:13:37.363Z,2.20
2018-05-25T21:16:03.140Z,2.10
2018-05-25T21:18:28.892Z,2.83
2018-05-25T21:20:54.667Z,2.10
2018-05-25T21:23:20.412Z,2.30
2018-05-25T21:25:46.179Z,2.43
2018-05-25T21:28:11.948Z,1.97
2018-05-25T21:30:37.724Z,1.90
2018-05-25T21:33:03.463Z,2.07
2018-05-25T21:35:29.325Z,2.20
2018-05-25T21:37:55.068Z,2.00
2018-05-25T21:40:20.836Z,2.10
2018-05-25T21:42:46.609Z,2.40
2018-05-25T21:45:12.371Z,1.80
2018-05-25T21:47:38.414Z,2.17
2018-05-25T21:50:04.163Z,2.73
2018-05-25T21:52:29.975Z,2.13
2018-05-25T21:54:56.369Z,2.40
2018-05-25T21:57:22.159Z,2.60
2018-05-25T21:59:47.919Z,3.17
2018-05-25T22:02:13.707Z,2.27
2018-05-25T22:04:39.646Z,2.50
2018-05-25T22:07:05.397Z,2.00
2018-05-25T22:09:31.173Z,2.63
2018-05-25T22:11:56.944Z,2.83
2018-05-25T22:14:22.716Z,2.60
2018-05-25T22:16:48.531Z,2.47
2018-05-25T22:19:14.389Z,2.80
2018-05-25T22:21:40.179Z,1.90
2018-05-25T22:24:05.932Z,2.40
2018-05-25T22:26:31.751Z,2.13
2018-05-25T22:28:57.503Z,2.50
2018-05-25T22:31:23.285Z,2.10
2018-05-25T22:33:49.037Z,2.33
2018-05-25T22:36:14.800Z,2.40
2018-05-25T22:38:40.901Z,2.30
2018-05-25T22:41:06.751Z,2.93
2018-05-25T22:43:44.740Z,2.30
2018-05-25T22:46:22.979Z,2.73
2018-05-25T22:49:01.259Z,2.53
2018-05-25T22:51:39.396Z,2.50
2018-05-25T22:54:11.192Z,2.70
2018-05-25T22:56:37.035Z,2.53
2018-05-25T22:59:02.782Z,2.63
2018-05-25T23:01:28.677Z,3.13
2018-05-25T23:03:54.433Z,2.60
2018-05-25T23:06:20.191Z,2.97
2018-05-25T23:08:45.943Z,2.40
2018-05-25T23:11:11.719Z,3.03
2018-05-25T23:13:37.499Z,3.30
2018-05-25T23:16:03.463Z,2.77
2018-05-25T23:18:29.249Z,3.10
2018-05-25T23:20:55.027Z,3.00
2018-05-25T23:23:20.815Z,3.70
2018-05-25T23:25:46.571Z,2.93
2018-05-25T23:28:12.435Z,2.97
2018-05-25T23:30:38.176Z,2.70
2018-05-25T23:33:03.947Z,3.10
2018-05-25T23:35:29.711Z,2.90
2018-05-25T23:37:55.507Z,2.63
2018-05-25T23:40:21.251Z,2.57
2018-05-25T23:42:47.023Z,2.90
2018-05-25T23:45:12.773Z,3.10
2018-05-25T23:47:38.625Z,2.67
2018-05-25T23:50:04.379Z,3.10
2018-05-25T23:52:30.153Z,3.70
2018-05-25T23:54:55.897Z,3.20
2018-05-25T23:57:21.699Z,3.57
2018-05-25T23:59:47.443Z,3.47
